BAW64XR EGLL-LFMN
Flight info
| Callsign | BAW64XR |
|---|---|
| Flight time | 1h 57m |
| Altitude | 33000 |
| Route | MODMI M185 MID L612 BOGNA UL612 VEULE DCT KOTAP DCT KETEX DCT KOTIS DCT KUKOR DCT UTUVA DCT LERGA DCT LIQID DCT LATAM DCT TUNUR DCT NISAR |
| Aircraft | A319/M-SDE3FGHIRWY/LB1 |
Departure
| Time | 2026-05-05 14:24 |
|---|---|
| Airport | London Heathrow Airport (EGLL) |
Arrival
| Time | 2026-05-05 16:22 |
|---|---|
| Airport | Nice-Côte d'Azur Airport (LFMN) |
| Time | Latitude | Longitude | Altitude | Speed | Heading |
|---|---|---|---|---|---|
| 2026-05-05 13:57 | 51.47399 | -0.48589 | 88 ft | 0 kts | 270° |
| 2026-05-05 14:14 | 51.47399 | -0.48580 | 89 ft | 4 kts | 270° |
| 2026-05-05 14:14 | 51.47400 | -0.48537 | 86 ft | 4 kts | 270° |
| 2026-05-05 14:15 | 51.47401 | -0.48503 | 86 ft | 4 kts | 249° |
| 2026-05-05 14:15 | 51.47415 | -0.48476 | 90 ft | 4 kts | 188° |
| 2026-05-05 14:15 | 51.47437 | -0.48475 | 87 ft | 1 kts | 179° |
| 2026-05-05 14:21 | 51.47379 | -0.48473 | 87 ft | 13 kts | 174° |
| 2026-05-05 14:21 | 51.47287 | -0.48474 | 86 ft | 14 kts | 180° |
| 2026-05-05 14:21 | 51.47180 | -0.48473 | 86 ft | 16 kts | 180° |
| 2026-05-05 14:22 | 51.47059 | -0.48472 | 86 ft | 18 kts | 180° |
| 2026-05-05 14:22 | 51.46933 | -0.48469 | 86 ft | 16 kts | 179° |
| 2026-05-05 14:22 | 51.46818 | -0.48469 | 86 ft | 17 kts | 182° |
| 2026-05-05 14:22 | 51.46691 | -0.48469 | 86 ft | 19 kts | 179° |
| 2026-05-05 14:23 | 51.46552 | -0.48466 | 87 ft | 19 kts | 180° |
| 2026-05-05 14:23 | 51.46479 | -0.48371 | 87 ft | 0 kts | 87° |
| 2026-05-05 14:23 | 51.46480 | -0.48334 | 87 ft | 13 kts | 87° |
| 2026-05-05 14:24 | 51.46480 | -0.47877 | 87 ft | 71 kts | 90° |
| 2026-05-05 14:24 | 51.46485 | -0.46782 | 89 ft | 125 kts | 90° |
| 2026-05-05 14:24 | 51.46493 | -0.45117 | 163 ft | 165 kts | 88° |
| 2026-05-05 14:24 | 51.46497 | -0.43331 | 917 ft | 157 kts | 87° |
| 2026-05-05 14:25 | 51.46408 | -0.41549 | 1524 ft | 171 kts | 105° |
| 2026-05-05 14:25 | 51.45718 | -0.39809 | 1851 ft | 198 kts | 123° |
| 2026-05-05 14:25 | 51.44760 | -0.38064 | 2187 ft | 225 kts | 142° |
| 2026-05-05 14:25 | 51.43253 | -0.37022 | 2752 ft | 243 kts | 159° |
| 2026-05-05 14:26 | 51.41634 | -0.36152 | 3636 ft | 249 kts | 161° |
| 2026-05-05 14:26 | 51.39841 | -0.35879 | 4259 ft | 271 kts | 189° |
| 2026-05-05 14:26 | 51.38057 | -0.36961 | 5174 ft | 277 kts | 207° |
| 2026-05-05 14:26 | 51.36327 | -0.38356 | 6162 ft | 281 kts | 207° |
| 2026-05-05 14:27 | 51.34571 | -0.39755 | 7128 ft | 283 kts | 206° |
| 2026-05-05 14:27 | 51.32796 | -0.41160 | 8099 ft | 286 kts | 206° |
| 2026-05-05 14:27 | 51.30997 | -0.42576 | 9004 ft | 289 kts | 206° |
| 2026-05-05 14:27 | 51.29185 | -0.43992 | 9924 ft | 292 kts | 206° |
| 2026-05-05 14:28 | 51.27304 | -0.45456 | 10354 ft | 312 kts | 206° |
| 2026-05-05 14:28 | 51.25284 | -0.47046 | 10670 ft | 333 kts | 206° |
| 2026-05-05 14:28 | 51.23185 | -0.48716 | 11300 ft | 340 kts | 206° |
| 2026-05-05 14:28 | 51.21079 | -0.50385 | 12031 ft | 345 kts | 206° |
| 2026-05-05 14:29 | 51.18875 | -0.52109 | 12749 ft | 351 kts | 205° |
| 2026-05-05 14:29 | 51.16692 | -0.53803 | 13416 ft | 357 kts | 205° |
| 2026-05-05 14:29 | 51.14418 | -0.55552 | 14121 ft | 360 kts | 205° |
| 2026-05-05 14:29 | 51.12156 | -0.57289 | 14810 ft | 362 kts | 205° |
| 2026-05-05 14:30 | 51.09852 | -0.58961 | 15428 ft | 366 kts | 199° |
| 2026-05-05 14:30 | 51.07399 | -0.59883 | 16042 ft | 368 kts | 185° |
| 2026-05-05 14:30 | 51.04844 | -0.59842 | 16702 ft | 369 kts | 171° |
| 2026-05-05 14:30 | 51.02369 | -0.58817 | 17362 ft | 370 kts | 157° |
| 2026-05-05 14:31 | 51.00094 | -0.56862 | 18019 ft | 372 kts | 145° |
| 2026-05-05 14:31 | 50.97955 | -0.54565 | 18600 ft | 375 kts | 145° |
| 2026-05-05 14:31 | 50.95776 | -0.52226 | 19178 ft | 378 kts | 145° |
| 2026-05-05 14:31 | 50.93583 | -0.49883 | 19750 ft | 381 kts | 146° |
| 2026-05-05 14:32 | 50.91377 | -0.47536 | 20322 ft | 384 kts | 146° |
| 2026-05-05 14:32 | 50.89147 | -0.45170 | 20886 ft | 388 kts | 146° |
| 2026-05-05 14:32 | 50.86883 | -0.42773 | 21447 ft | 391 kts | 146° |
| 2026-05-05 14:32 | 50.84583 | -0.40341 | 21983 ft | 394 kts | 146° |
| 2026-05-05 14:33 | 50.82325 | -0.37954 | 22506 ft | 398 kts | 146° |
| 2026-05-05 14:33 | 50.80015 | -0.35511 | 23027 ft | 401 kts | 146° |
| 2026-05-05 14:33 | 50.77687 | -0.33049 | 23530 ft | 404 kts | 146° |
| 2026-05-05 14:33 | 50.75336 | -0.30567 | 23954 ft | 407 kts | 147° |
| 2026-05-05 14:34 | 50.72977 | -0.28081 | 24431 ft | 408 kts | 147° |
| 2026-05-05 14:34 | 50.70615 | -0.25597 | 24925 ft | 409 kts | 147° |
| 2026-05-05 14:34 | 50.68245 | -0.23109 | 25425 ft | 409 kts | 147° |
| 2026-05-05 14:34 | 50.66642 | -0.21425 | 25761 ft | 409 kts | 147° |
| 2026-05-05 14:35 | 50.64271 | -0.18941 | 26243 ft | 410 kts | 147° |
| 2026-05-05 14:35 | 50.61922 | -0.16482 | 26644 ft | 413 kts | 147° |
| 2026-05-05 14:35 | 50.59522 | -0.13975 | 27071 ft | 415 kts | 147° |
| 2026-05-05 14:35 | 50.57111 | -0.11461 | 27517 ft | 416 kts | 147° |
| 2026-05-05 14:36 | 50.54694 | -0.08941 | 27974 ft | 418 kts | 147° |
| 2026-05-05 14:36 | 50.52268 | -0.06413 | 28422 ft | 419 kts | 147° |
| 2026-05-05 14:36 | 50.49835 | -0.03879 | 28865 ft | 420 kts | 147° |
| 2026-05-05 14:36 | 50.47391 | -0.01340 | 29301 ft | 422 kts | 147° |
| 2026-05-05 14:37 | 50.44939 | 0.01205 | 29685 ft | 424 kts | 147° |
| 2026-05-05 14:37 | 50.42474 | 0.03765 | 30051 ft | 426 kts | 147° |
| 2026-05-05 14:37 | 50.39998 | 0.06332 | 30412 ft | 427 kts | 147° |
| 2026-05-05 14:37 | 50.37517 | 0.08903 | 30756 ft | 428 kts | 147° |
| 2026-05-05 14:38 | 50.35025 | 0.11478 | 31060 ft | 430 kts | 147° |
| 2026-05-05 14:38 | 50.32516 | 0.14065 | 31335 ft | 433 kts | 147° |
| 2026-05-05 14:38 | 50.30001 | 0.16657 | 31690 ft | 433 kts | 148° |
| 2026-05-05 14:38 | 50.27487 | 0.19244 | 32095 ft | 432 kts | 148° |
| 2026-05-05 14:39 | 50.24974 | 0.21825 | 32486 ft | 432 kts | 148° |
| 2026-05-05 14:39 | 50.22460 | 0.24406 | 32850 ft | 433 kts | 148° |
| 2026-05-05 14:39 | 50.17507 | 0.29485 | 32932 ft | 417 kts | 147° |
| 2026-05-05 14:40 | 50.12701 | 0.34429 | 32926 ft | 412 kts | 147° |
| 2026-05-05 14:40 | 50.07929 | 0.39338 | 32920 ft | 411 kts | 147° |
| 2026-05-05 14:41 | 50.03151 | 0.44225 | 32920 ft | 411 kts | 148° |
| 2026-05-05 14:41 | 49.98382 | 0.49082 | 32921 ft | 409 kts | 148° |
| 2026-05-05 14:42 | 49.93629 | 0.53914 | 32922 ft | 408 kts | 147° |
| 2026-05-05 14:42 | 49.88883 | 0.58738 | 32913 ft | 408 kts | 147° |
| 2026-05-05 14:43 | 49.84141 | 0.63570 | 32910 ft | 408 kts | 146° |
| 2026-05-05 14:43 | 49.79515 | 0.68661 | 32907 ft | 408 kts | 144° |
| 2026-05-05 14:44 | 49.74939 | 0.73842 | 32898 ft | 407 kts | 144° |
| 2026-05-05 14:44 | 49.70352 | 0.78969 | 32902 ft | 407 kts | 144° |
| 2026-05-05 14:45 | 49.65743 | 0.84041 | 32895 ft | 407 kts | 145° |
| 2026-05-05 14:45 | 49.61132 | 0.89092 | 32891 ft | 407 kts | 145° |
| 2026-05-05 14:46 | 49.56513 | 0.94137 | 32856 ft | 407 kts | 145° |
| 2026-05-05 14:46 | 49.51890 | 0.99186 | 32860 ft | 408 kts | 145° |
| 2026-05-05 14:47 | 49.47264 | 1.04233 | 32857 ft | 408 kts | 144° |
| 2026-05-05 14:47 | 49.42639 | 1.09271 | 32852 ft | 407 kts | 144° |
| 2026-05-05 14:48 | 49.38044 | 1.14258 | 32849 ft | 407 kts | 144° |
| 2026-05-05 14:48 | 49.33418 | 1.19261 | 32850 ft | 407 kts | 145° |
| 2026-05-05 14:49 | 49.28791 | 1.24263 | 32854 ft | 407 kts | 144° |
| 2026-05-05 14:49 | 49.24159 | 1.29257 | 32856 ft | 407 kts | 144° |
| 2026-05-05 14:50 | 49.19528 | 1.34243 | 32854 ft | 407 kts | 144° |
| 2026-05-05 14:50 | 49.14895 | 1.39223 | 32858 ft | 407 kts | 144° |
| 2026-05-05 14:51 | 49.10260 | 1.44185 | 32856 ft | 407 kts | 144° |
| 2026-05-05 14:51 | 49.05629 | 1.49124 | 32861 ft | 406 kts | 144° |
| 2026-05-05 14:52 | 49.00989 | 1.54054 | 32861 ft | 407 kts | 144° |
| 2026-05-05 14:52 | 48.96348 | 1.58985 | 32847 ft | 407 kts | 144° |
| 2026-05-05 14:53 | 48.91707 | 1.63905 | 32849 ft | 406 kts | 144° |
| 2026-05-05 14:53 | 48.87068 | 1.68816 | 32846 ft | 406 kts | 144° |
| 2026-05-05 14:54 | 48.82427 | 1.73724 | 32847 ft | 407 kts | 144° |
| 2026-05-05 14:54 | 48.77780 | 1.78617 | 32816 ft | 407 kts | 144° |
| 2026-05-05 14:55 | 48.73127 | 1.83507 | 32821 ft | 407 kts | 144° |
| 2026-05-05 14:55 | 48.68464 | 1.88392 | 32819 ft | 408 kts | 144° |
| 2026-05-05 14:56 | 48.63798 | 1.93271 | 32818 ft | 408 kts | 144° |
| 2026-05-05 14:56 | 48.59128 | 1.98143 | 32828 ft | 408 kts | 144° |
| 2026-05-05 14:57 | 48.54457 | 2.03003 | 32821 ft | 408 kts | 144° |
| 2026-05-05 14:57 | 48.49786 | 2.07853 | 32807 ft | 408 kts | 144° |
| 2026-05-05 14:58 | 48.45142 | 2.12661 | 32801 ft | 408 kts | 144° |
| 2026-05-05 14:58 | 48.40467 | 2.17493 | 32798 ft | 408 kts | 144° |
| 2026-05-05 14:59 | 48.35785 | 2.22331 | 32788 ft | 409 kts | 144° |
| 2026-05-05 14:59 | 48.31088 | 2.27163 | 32800 ft | 410 kts | 144° |
| 2026-05-05 15:00 | 48.26890 | 2.30474 | 32801 ft | 413 kts | 159° |
| 2026-05-05 15:00 | 48.20405 | 2.33150 | 32799 ft | 414 kts | 163° |
| 2026-05-05 15:01 | 48.14837 | 2.35364 | 32813 ft | 414 kts | 163° |
| 2026-05-05 15:01 | 48.09305 | 2.37781 | 32813 ft | 414 kts | 160° |
| 2026-05-05 15:02 | 48.03857 | 2.40577 | 32822 ft | 414 kts | 159° |
| 2026-05-05 15:02 | 47.98420 | 2.43397 | 32829 ft | 414 kts | 159° |
| 2026-05-05 15:03 | 47.92960 | 2.46136 | 32825 ft | 414 kts | 160° |
| 2026-05-05 15:03 | 47.87486 | 2.48822 | 32831 ft | 414 kts | 160° |
| 2026-05-05 15:04 | 47.82011 | 2.51496 | 32824 ft | 414 kts | 160° |
| 2026-05-05 15:04 | 47.76580 | 2.54173 | 32818 ft | 414 kts | 161° |
| 2026-05-05 15:05 | 47.68399 | 2.58211 | 32819 ft | 413 kts | 161° |
| 2026-05-05 15:06 | 47.62941 | 2.60881 | 32821 ft | 413 kts | 161° |
| 2026-05-05 15:06 | 47.57481 | 2.63546 | 32826 ft | 413 kts | 161° |
| 2026-05-05 15:07 | 47.52015 | 2.66207 | 32839 ft | 413 kts | 161° |
| 2026-05-05 15:07 | 47.46559 | 2.68856 | 32841 ft | 412 kts | 161° |
| 2026-05-05 15:08 | 47.41109 | 2.71511 | 32836 ft | 412 kts | 161° |
| 2026-05-05 15:08 | 47.35653 | 2.74153 | 32835 ft | 412 kts | 161° |
| 2026-05-05 15:09 | 47.30198 | 2.76779 | 32842 ft | 413 kts | 162° |
| 2026-05-05 15:09 | 47.24737 | 2.79403 | 32838 ft | 412 kts | 162° |
| 2026-05-05 15:10 | 47.19283 | 2.82031 | 32850 ft | 412 kts | 162° |
| 2026-05-05 15:10 | 47.13830 | 2.84656 | 32850 ft | 412 kts | 162° |
| 2026-05-05 15:11 | 47.08382 | 2.87270 | 32854 ft | 412 kts | 162° |
| 2026-05-05 15:11 | 47.02930 | 2.89872 | 32841 ft | 412 kts | 162° |
| 2026-05-05 15:12 | 46.97467 | 2.92468 | 32848 ft | 413 kts | 163° |
| 2026-05-05 15:12 | 46.92010 | 2.95067 | 32856 ft | 413 kts | 163° |
| 2026-05-05 15:13 | 46.86552 | 2.97661 | 32854 ft | 413 kts | 163° |
| 2026-05-05 15:13 | 46.81085 | 3.00250 | 32848 ft | 413 kts | 163° |
| 2026-05-05 15:14 | 46.75652 | 3.02820 | 32852 ft | 413 kts | 163° |
| 2026-05-05 15:14 | 46.70178 | 3.05405 | 32851 ft | 413 kts | 163° |
| 2026-05-05 15:15 | 46.64702 | 3.07979 | 32853 ft | 413 kts | 163° |
| 2026-05-05 15:15 | 46.59232 | 3.10551 | 32858 ft | 413 kts | 163° |
| 2026-05-05 15:16 | 46.53757 | 3.13119 | 32862 ft | 413 kts | 162° |
| 2026-05-05 15:16 | 46.48339 | 3.15929 | 32863 ft | 414 kts | 161° |
| 2026-05-05 15:17 | 46.42958 | 3.18919 | 32863 ft | 414 kts | 160° |
| 2026-05-05 15:17 | 46.37578 | 3.21870 | 32849 ft | 414 kts | 161° |
| 2026-05-05 15:18 | 46.32182 | 3.24773 | 32855 ft | 413 kts | 162° |
| 2026-05-05 15:18 | 46.26790 | 3.27649 | 32861 ft | 413 kts | 162° |
| 2026-05-05 15:19 | 46.21431 | 3.30497 | 32861 ft | 413 kts | 162° |
| 2026-05-05 15:19 | 46.16004 | 3.33384 | 32863 ft | 413 kts | 162° |
| 2026-05-05 15:20 | 46.10653 | 3.36227 | 32866 ft | 413 kts | 162° |
| 2026-05-05 15:20 | 46.05231 | 3.39112 | 32870 ft | 413 kts | 162° |
| 2026-05-05 15:21 | 45.99881 | 3.41962 | 32874 ft | 412 kts | 162° |
| 2026-05-05 15:21 | 45.94496 | 3.44811 | 32880 ft | 412 kts | 162° |
| 2026-05-05 15:22 | 45.89110 | 3.47642 | 32889 ft | 412 kts | 163° |
| 2026-05-05 15:22 | 45.83701 | 3.50382 | 32888 ft | 412 kts | 165° |
| 2026-05-05 15:23 | 45.79152 | 3.52361 | 32890 ft | 411 kts | 167° |
| 2026-05-05 15:23 | 45.73653 | 3.54616 | 32889 ft | 411 kts | 167° |
| 2026-05-05 15:24 | 45.68157 | 3.56917 | 32883 ft | 412 kts | 167° |
| 2026-05-05 15:24 | 45.62673 | 3.59274 | 32884 ft | 412 kts | 167° |
| 2026-05-05 15:25 | 45.57183 | 3.61638 | 32890 ft | 412 kts | 167° |
| 2026-05-05 15:25 | 45.51689 | 3.63993 | 32874 ft | 412 kts | 167° |
| 2026-05-05 15:26 | 45.46193 | 3.66339 | 32883 ft | 412 kts | 167° |
| 2026-05-05 15:26 | 45.40702 | 3.68676 | 32893 ft | 412 kts | 167° |
| 2026-05-05 15:27 | 45.35218 | 3.71000 | 32892 ft | 411 kts | 167° |
| 2026-05-05 15:27 | 45.29784 | 3.73403 | 32884 ft | 414 kts | 162° |
| 2026-05-05 15:27 | 45.27175 | 3.75335 | 32896 ft | 421 kts | 151° |
| 2026-05-05 15:28 | 45.24874 | 3.77942 | 32889 ft | 428 kts | 140° |
| 2026-05-05 15:28 | 45.22931 | 3.81184 | 32896 ft | 435 kts | 129° |
| 2026-05-05 15:28 | 45.21281 | 3.84797 | 32872 ft | 437 kts | 128° |
| 2026-05-05 15:29 | 45.18020 | 3.91988 | 32871 ft | 436 kts | 129° |
| 2026-05-05 15:29 | 45.14720 | 3.99203 | 32879 ft | 437 kts | 129° |
| 2026-05-05 15:30 | 45.11414 | 4.06413 | 32863 ft | 436 kts | 129° |
| 2026-05-05 15:30 | 45.08113 | 4.13617 | 32867 ft | 437 kts | 129° |
| 2026-05-05 15:31 | 45.04793 | 4.20837 | 32878 ft | 438 kts | 129° |
| 2026-05-05 15:31 | 45.01063 | 4.27490 | 32858 ft | 428 kts | 140° |
| 2026-05-05 15:32 | 44.97036 | 4.33687 | 32873 ft | 429 kts | 140° |
| 2026-05-05 15:32 | 44.93004 | 4.39893 | 32878 ft | 429 kts | 140° |
| 2026-05-05 15:33 | 44.88964 | 4.46091 | 32871 ft | 429 kts | 141° |
| 2026-05-05 15:33 | 44.84913 | 4.52277 | 32875 ft | 429 kts | 141° |
| 2026-05-05 15:34 | 44.80854 | 4.58465 | 32853 ft | 430 kts | 141° |
| 2026-05-05 15:34 | 44.76789 | 4.64657 | 32882 ft | 432 kts | 141° |
| 2026-05-05 15:35 | 44.72706 | 4.70858 | 32894 ft | 432 kts | 141° |
| 2026-05-05 15:35 | 44.68620 | 4.77053 | 32895 ft | 432 kts | 141° |
| 2026-05-05 15:36 | 44.64532 | 4.83232 | 32908 ft | 432 kts | 141° |
| 2026-05-05 15:36 | 44.60497 | 4.89497 | 32894 ft | 433 kts | 140° |
| 2026-05-05 15:37 | 44.56551 | 4.95879 | 32853 ft | 433 kts | 140° |
| 2026-05-05 15:37 | 44.52603 | 5.02262 | 32869 ft | 433 kts | 141° |
| 2026-05-05 15:38 | 44.48630 | 5.08586 | 32862 ft | 433 kts | 142° |
| 2026-05-05 15:38 | 44.44643 | 5.14905 | 32799 ft | 434 kts | 142° |
| 2026-05-05 15:38 | 44.42651 | 5.18063 | 32530 ft | 433 kts | 142° |
| 2026-05-05 15:39 | 44.40655 | 5.21223 | 32270 ft | 433 kts | 142° |
| 2026-05-05 15:39 | 44.38658 | 5.24376 | 32015 ft | 433 kts | 142° |
| 2026-05-05 15:39 | 44.36588 | 5.27286 | 31734 ft | 420 kts | 150° |
| 2026-05-05 15:39 | 44.34322 | 5.29811 | 31282 ft | 415 kts | 152° |
| 2026-05-05 15:40 | 44.32049 | 5.32290 | 30816 ft | 413 kts | 152° |
| 2026-05-05 15:40 | 44.29798 | 5.34740 | 30346 ft | 409 kts | 153° |
| 2026-05-05 15:40 | 44.27562 | 5.37175 | 29890 ft | 406 kts | 152° |
| 2026-05-05 15:40 | 44.25345 | 5.39595 | 29401 ft | 403 kts | 152° |
| 2026-05-05 15:41 | 44.23149 | 5.41988 | 28949 ft | 400 kts | 152° |
| 2026-05-05 15:41 | 44.20962 | 5.44364 | 28503 ft | 397 kts | 152° |
| 2026-05-05 15:41 | 44.18790 | 5.46719 | 28061 ft | 395 kts | 152° |
| 2026-05-05 15:41 | 44.16633 | 5.49054 | 27626 ft | 392 kts | 152° |
| 2026-05-05 15:42 | 44.14478 | 5.51386 | 27184 ft | 390 kts | 152° |
| 2026-05-05 15:42 | 44.12344 | 5.53696 | 26752 ft | 388 kts | 151° |
| 2026-05-05 15:42 | 44.10224 | 5.55993 | 26312 ft | 386 kts | 151° |
| 2026-05-05 15:42 | 44.08111 | 5.58281 | 25861 ft | 384 kts | 151° |
| 2026-05-05 15:43 | 44.06010 | 5.60549 | 25440 ft | 382 kts | 151° |
| 2026-05-05 15:43 | 44.03913 | 5.62806 | 25019 ft | 380 kts | 150° |
| 2026-05-05 15:43 | 44.01827 | 5.65050 | 24598 ft | 378 kts | 150° |
| 2026-05-05 15:43 | 43.99753 | 5.67283 | 24170 ft | 376 kts | 150° |
| 2026-05-05 15:44 | 43.97695 | 5.69496 | 23756 ft | 374 kts | 150° |
| 2026-05-05 15:44 | 43.95639 | 5.71706 | 23269 ft | 372 kts | 150° |
| 2026-05-05 15:44 | 43.93602 | 5.73894 | 22872 ft | 369 kts | 149° |
| 2026-05-05 15:44 | 43.91574 | 5.76065 | 22457 ft | 367 kts | 149° |
| 2026-05-05 15:45 | 43.89563 | 5.78217 | 22044 ft | 364 kts | 149° |
| 2026-05-05 15:45 | 43.87594 | 5.80326 | 21636 ft | 361 kts | 149° |
| 2026-05-05 15:45 | 43.85614 | 5.82446 | 21240 ft | 359 kts | 149° |
| 2026-05-05 15:45 | 43.83649 | 5.84554 | 20838 ft | 356 kts | 149° |
| 2026-05-05 15:46 | 43.81695 | 5.86645 | 20438 ft | 353 kts | 149° |
| 2026-05-05 15:46 | 43.79757 | 5.88710 | 20044 ft | 351 kts | 149° |
| 2026-05-05 15:46 | 43.77829 | 5.90762 | 19652 ft | 348 kts | 149° |
| 2026-05-05 15:46 | 43.75920 | 5.92796 | 19261 ft | 346 kts | 149° |
| 2026-05-05 15:47 | 43.74010 | 5.94830 | 18873 ft | 344 kts | 149° |
| 2026-05-05 15:47 | 43.72731 | 5.96192 | 18609 ft | 342 kts | 149° |
| 2026-05-05 15:47 | 43.70240 | 5.98837 | 18088 ft | 339 kts | 149° |
| 2026-05-05 15:47 | 43.68372 | 6.00821 | 17684 ft | 337 kts | 149° |
| 2026-05-05 15:48 | 43.66516 | 6.02787 | 17301 ft | 336 kts | 149° |
| 2026-05-05 15:48 | 43.64668 | 6.04737 | 16926 ft | 333 kts | 149° |
| 2026-05-05 15:48 | 43.62830 | 6.06679 | 16550 ft | 332 kts | 148° |
| 2026-05-05 15:48 | 43.61039 | 6.08696 | 16177 ft | 334 kts | 141° |
| 2026-05-05 15:49 | 43.59543 | 6.11187 | 15802 ft | 341 kts | 128° |
| 2026-05-05 15:49 | 43.58470 | 6.14124 | 15388 ft | 347 kts | 116° |
| 2026-05-05 15:49 | 43.57631 | 6.17231 | 14973 ft | 345 kts | 115° |
| 2026-05-05 15:49 | 43.56789 | 6.20325 | 14554 ft | 343 kts | 115° |
| 2026-05-05 15:50 | 43.55948 | 6.23392 | 14144 ft | 343 kts | 115° |
| 2026-05-05 15:50 | 43.55099 | 6.26466 | 13732 ft | 341 kts | 115° |
| 2026-05-05 15:50 | 43.54256 | 6.29509 | 13297 ft | 338 kts | 115° |
| 2026-05-05 15:50 | 43.53421 | 6.32518 | 12884 ft | 335 kts | 115° |
| 2026-05-05 15:51 | 43.52588 | 6.35513 | 12481 ft | 333 kts | 115° |
| 2026-05-05 15:51 | 43.51765 | 6.38482 | 12092 ft | 330 kts | 115° |
| 2026-05-05 15:51 | 43.50959 | 6.41378 | 11947 ft | 318 kts | 116° |
| 2026-05-05 15:51 | 43.49913 | 6.43977 | 11696 ft | 306 kts | 130° |
| 2026-05-05 15:52 | 43.48529 | 6.46134 | 11512 ft | 299 kts | 138° |
| 2026-05-05 15:52 | 43.47091 | 6.48191 | 11231 ft | 298 kts | 138° |
| 2026-05-05 15:52 | 43.45656 | 6.50258 | 10931 ft | 298 kts | 137° |
| 2026-05-05 15:52 | 43.44228 | 6.52321 | 10638 ft | 297 kts | 138° |
| 2026-05-05 15:53 | 43.42801 | 6.54379 | 10350 ft | 297 kts | 138° |
| 2026-05-05 15:53 | 43.41375 | 6.56435 | 10078 ft | 297 kts | 138° |
| 2026-05-05 15:53 | 43.39970 | 6.58455 | 9786 ft | 296 kts | 138° |
| 2026-05-05 15:53 | 43.38534 | 6.60525 | 9472 ft | 295 kts | 136° |
| 2026-05-05 15:54 | 43.37428 | 6.62868 | 9210 ft | 301 kts | 114° |
| 2026-05-05 15:54 | 43.37093 | 6.65701 | 8941 ft | 304 kts | 88° |
| 2026-05-05 15:54 | 43.37665 | 6.68526 | 8666 ft | 304 kts | 61° |
| 2026-05-05 15:54 | 43.39003 | 6.70730 | 8402 ft | 300 kts | 39° |
| 2026-05-05 15:55 | 43.40572 | 6.72570 | 8138 ft | 300 kts | 39° |
| 2026-05-05 15:55 | 43.42175 | 6.74451 | 7868 ft | 298 kts | 39° |
| 2026-05-05 15:55 | 43.43747 | 6.76303 | 7612 ft | 297 kts | 40° |
| 2026-05-05 15:55 | 43.45066 | 6.78455 | 7340 ft | 294 kts | 59° |
| 2026-05-05 15:56 | 43.45821 | 6.80996 | 7084 ft | 290 kts | 78° |
| 2026-05-05 15:56 | 43.45980 | 6.83773 | 6783 ft | 286 kts | 97° |
| 2026-05-05 15:56 | 43.45626 | 6.86448 | 6482 ft | 285 kts | 105° |
| 2026-05-05 15:56 | 43.45210 | 6.89112 | 6198 ft | 285 kts | 104° |
| 2026-05-05 15:57 | 43.44807 | 6.91736 | 5911 ft | 284 kts | 104° |
| 2026-05-05 15:57 | 43.44405 | 6.94380 | 5670 ft | 282 kts | 104° |
| 2026-05-05 15:57 | 43.44007 | 6.97009 | 5394 ft | 280 kts | 104° |
| 2026-05-05 15:57 | 43.43607 | 6.99622 | 5112 ft | 278 kts | 104° |
| 2026-05-05 15:58 | 43.43208 | 7.02211 | 4832 ft | 276 kts | 104° |
| 2026-05-05 15:58 | 43.42815 | 7.04764 | 4643 ft | 267 kts | 104° |
| 2026-05-05 15:58 | 43.42447 | 7.07167 | 4543 ft | 248 kts | 104° |
| 2026-05-05 15:58 | 43.42261 | 7.09431 | 4452 ft | 233 kts | 88° |
| 2026-05-05 15:59 | 43.42668 | 7.11525 | 4339 ft | 222 kts | 64° |
| 2026-05-05 15:59 | 43.43567 | 7.13167 | 4235 ft | 211 kts | 42° |
| 2026-05-05 15:59 | 43.44667 | 7.14469 | 4141 ft | 208 kts | 40° |
| 2026-05-05 15:59 | 43.45812 | 7.15616 | 4098 ft | 198 kts | 26° |
| 2026-05-05 16:00 | 43.47086 | 7.16163 | 3901 ft | 190 kts | 6° |
| 2026-05-05 16:00 | 43.48404 | 7.16138 | 3598 ft | 190 kts | 353° |
| 2026-05-05 16:00 | 43.49721 | 7.16001 | 3324 ft | 188 kts | 354° |
| 2026-05-05 16:00 | 43.50974 | 7.15879 | 3066 ft | 172 kts | 354° |
| 2026-05-05 16:01 | 43.52117 | 7.15771 | 2825 ft | 156 kts | 354° |
| 2026-05-05 16:01 | 43.53156 | 7.15673 | 2610 ft | 145 kts | 354° |
| 2026-05-05 16:01 | 43.54150 | 7.15578 | 2426 ft | 142 kts | 354° |
| 2026-05-05 16:01 | 43.55123 | 7.15483 | 2245 ft | 139 kts | 354° |
| 2026-05-05 16:02 | 43.56082 | 7.15385 | 2001 ft | 138 kts | 354° |
| 2026-05-05 16:02 | 43.57036 | 7.15285 | 1798 ft | 137 kts | 354° |
| 2026-05-05 16:02 | 43.57988 | 7.15254 | 1638 ft | 137 kts | 0° |
| 2026-05-05 16:02 | 43.58935 | 7.15362 | 1538 ft | 136 kts | 8° |
| 2026-05-05 16:03 | 43.59860 | 7.15627 | 1496 ft | 136 kts | 12° |
| 2026-05-05 16:03 | 43.60793 | 7.15928 | 1271 ft | 142 kts | 11° |
| 2026-05-05 16:03 | 43.61750 | 7.16237 | 1209 ft | 139 kts | 19° |
| 2026-05-05 16:03 | 43.62617 | 7.16793 | 1057 ft | 136 kts | 37° |
| 2026-05-05 16:04 | 43.63318 | 7.17621 | 779 ft | 129 kts | 47° |
| 2026-05-05 16:04 | 43.63960 | 7.18632 | 1070 ft | 149 kts | 51° |
| 2026-05-05 16:04 | 43.64709 | 7.19743 | 1514 ft | 165 kts | 47° |
| 2026-05-05 16:04 | 43.65559 | 7.20909 | 1916 ft | 183 kts | 46° |
| 2026-05-05 16:05 | 43.66528 | 7.22226 | 2347 ft | 206 kts | 47° |
| 2026-05-05 16:05 | 43.67224 | 7.23985 | 2876 ft | 217 kts | 79° |
| 2026-05-05 16:05 | 43.67139 | 7.26009 | 2983 ft | 212 kts | 108° |
| 2026-05-05 16:05 | 43.66658 | 7.27927 | 3004 ft | 211 kts | 112° |
| 2026-05-05 16:06 | 43.66139 | 7.29779 | 3006 ft | 210 kts | 113° |
| 2026-05-05 16:06 | 43.65607 | 7.31661 | 3006 ft | 210 kts | 113° |
| 2026-05-05 16:06 | 43.65059 | 7.33563 | 3007 ft | 210 kts | 113° |
| 2026-05-05 16:06 | 43.64523 | 7.35408 | 3009 ft | 210 kts | 114° |
| 2026-05-05 16:07 | 43.63975 | 7.37280 | 3010 ft | 210 kts | 114° |
| 2026-05-05 16:07 | 43.63433 | 7.39140 | 3011 ft | 210 kts | 114° |
| 2026-05-05 16:07 | 43.62893 | 7.40998 | 3153 ft | 208 kts | 115° |
| 2026-05-05 16:07 | 43.62134 | 7.42695 | 3403 ft | 209 kts | 127° |
| 2026-05-05 16:08 | 43.61287 | 7.44332 | 3652 ft | 210 kts | 128° |
| 2026-05-05 16:08 | 43.60443 | 7.45975 | 3889 ft | 211 kts | 127° |
| 2026-05-05 16:08 | 43.59587 | 7.47642 | 3989 ft | 213 kts | 127° |
| 2026-05-05 16:08 | 43.58729 | 7.49311 | 4016 ft | 213 kts | 128° |
| 2026-05-05 16:09 | 43.57873 | 7.50976 | 4019 ft | 214 kts | 128° |
| 2026-05-05 16:09 | 43.57011 | 7.52651 | 4023 ft | 215 kts | 128° |
| 2026-05-05 16:09 | 43.56147 | 7.54331 | 4018 ft | 215 kts | 128° |
| 2026-05-05 16:09 | 43.55280 | 7.56009 | 4019 ft | 214 kts | 128° |
| 2026-05-05 16:10 | 43.54204 | 7.57378 | 4018 ft | 210 kts | 155° |
| 2026-05-05 16:10 | 43.52815 | 7.57871 | 4022 ft | 206 kts | 183° |
| 2026-05-05 16:10 | 43.51446 | 7.57384 | 4021 ft | 205 kts | 211° |
| 2026-05-05 16:10 | 43.50276 | 7.56262 | 4016 ft | 205 kts | 216° |
| 2026-05-05 16:11 | 43.49116 | 7.55109 | 4018 ft | 206 kts | 216° |
| 2026-05-05 16:11 | 43.47030 | 7.50140 | 3752 ft | 207 kts | 256° |
| 2026-05-05 16:12 | 43.46826 | 7.48882 | 3718 ft | 200 kts | 256° |
| 2026-05-05 16:12 | 43.46195 | 7.45052 | 3635 ft | 206 kts | 256° |
| 2026-05-05 16:13 | 43.45237 | 7.39294 | 3496 ft | 206 kts | 256° |
| 2026-05-05 16:13 | 43.44918 | 7.37377 | 3452 ft | 206 kts | 256° |
| 2026-05-05 16:13 | 43.44598 | 7.35457 | 3409 ft | 206 kts | 256° |
| 2026-05-05 16:14 | 43.43955 | 7.31616 | 3315 ft | 206 kts | 256° |
| 2026-05-05 16:14 | 43.43314 | 7.27797 | 3222 ft | 206 kts | 256° |
| 2026-05-05 16:15 | 43.42718 | 7.23931 | 3133 ft | 207 kts | 266° |
| 2026-05-05 16:15 | 43.43721 | 7.20298 | 3034 ft | 211 kts | 310° |
| 2026-05-05 16:16 | 43.45697 | 7.17313 | 2946 ft | 209 kts | 320° |
| 2026-05-05 16:16 | 43.48312 | 7.16140 | 3011 ft | 199 kts | 355° |
| 2026-05-05 16:17 | 43.50868 | 7.15899 | 3002 ft | 164 kts | 355° |
| 2026-05-05 16:17 | 43.51965 | 7.15793 | 2907 ft | 151 kts | 355° |
| 2026-05-05 16:18 | 43.53960 | 7.15600 | 2464 ft | 140 kts | 355° |
| 2026-05-05 16:18 | 43.54917 | 7.15510 | 2271 ft | 139 kts | 355° |
| 2026-05-05 16:18 | 43.56842 | 7.15347 | 1831 ft | 137 kts | 356° |
| 2026-05-05 16:19 | 43.57780 | 7.15286 | 1584 ft | 136 kts | 356° |
| 2026-05-05 16:19 | 43.58731 | 7.15227 | 1343 ft | 135 kts | 356° |
| 2026-05-05 16:19 | 43.60595 | 7.15198 | 990 ft | 136 kts | 6° |
| 2026-05-05 16:20 | 43.62176 | 7.16286 | 805 ft | 124 kts | 41° |
| 2026-05-05 16:20 | 43.63386 | 7.17935 | 502 ft | 121 kts | 48° |
| 2026-05-05 16:21 | 43.64582 | 7.19567 | 259 ft | 119 kts | 50° |
| 2026-05-05 16:22 | 43.66168 | 7.21764 | 21 ft | 64 kts | 44° |
| 2026-05-05 16:22 | 43.66449 | 7.22122 | 22 ft | 15 kts | 11° |
| 2026-05-05 16:23 | 43.66539 | 7.22045 | 21 ft | 0 kts | 315° |
| 2026-05-05 16:24 | 43.66543 | 7.22040 | 21 ft | 3 kts | 315° |
| 2026-05-05 16:24 | 43.66606 | 7.21953 | 21 ft | 11 kts | 315° |
| 2026-05-05 16:25 | 43.66639 | 7.21855 | 21 ft | 13 kts | 249° |
| 2026-05-05 16:25 | 43.66487 | 7.21638 | 21 ft | 14 kts | 226° |
| 2026-05-05 16:25 | 43.66468 | 7.21595 | 21 ft | 4 kts | 273° |
| 2026-05-05 16:26 | 43.66506 | 7.21533 | 21 ft | 0 kts | 315° |
| 2026-05-05 16:26 | 43.66506 | 7.21532 | 21 ft | 0 kts | 315° |